FACV

Calvinia Airport

Calvinia, South Africa
METAR FACV 090853Z 26005KT 9999 SCT035 21/04 Q1020
Observed Flight Rules
Dec-9 @ 08:53 UTC (13 hours ago) Visual Flight Rules
Wind Visibility Clouds
260° at 5 knots 10,000+ meters
  • Scattered at 3,500' AGL
Temperatures Readings
Current 21°C / 70°F
Dewpoint 4°C / 39°F
Humidity 33%
Altimeter 30.12" Hg
Pressure 1020 hPa
Elevation 977
METAR FACV 090853Z 26005KT 9999 SCT035 21/04 Q1020
Observed Flight Rules
Dec-9 @ 08:53 UTC
(13 hours ago)
VFR
Wind Visibility
260° at 5 knots 10,000+ meters
Clouds
  • Scattered at 3,500' AGL
Temperature Dewpoint
21°C / 70°F 4°C / 39°F
Humidity Altimeter Pressure
33% 30.12" Hg 1020 hPa